Booneville, North Carolina
Current Conditions -  °F | °C
As of 3:15 AM on Thursday 18 Dec 2014 (Local Time) from KMWK Reporting Station
Clear Clear  
Wind Chill: 36°   Ceiling: Unl
Heat Index: 40°   Visibility: 10mi
Dew Point: 25°   Wind: 7mph
Humidity: 54%   Direction: 320°NW
Pressure: 30.13"   Gusts: NA
Location:  36.2374°N, 80.6343°W
Report Text: KMWK 180815Z AUTO 32006KT 10SM CLR 05/M04 A3013 RMK AO2 T00461039
Loading
Personal Weather Stations






























Interactive Weather Map New forecast layout! Learn more

10-Day Weather Forecast

Advertisements
Track Severe Weather on mobile